createdAt,value
2022-10-13T00:01:11.479Z,92.76
2022-10-13T00:03:50.023Z,92.58
2022-10-13T00:06:23.313Z,93.75
2022-10-13T00:08:52.591Z,93.62
2022-10-13T00:11:24.532Z,93.78
2022-10-13T00:13:52.003Z,93.21
2022-10-13T00:16:22.184Z,93.93
2022-10-13T00:18:52.089Z,94.04
2022-10-13T00:21:52.710Z,93.74
2022-10-13T00:24:21.414Z,93.97
2022-10-13T00:26:50.343Z,93.61
2022-10-13T00:29:21.243Z,93.88
2022-10-13T00:32:11.140Z,93.69
2022-10-13T00:34:38.407Z,93.96
2022-10-13T00:37:05.386Z,94.22
2022-10-13T00:39:32.578Z,95.21
2022-10-13T00:42:01.056Z,95.37
2022-10-13T00:45:22.260Z,94.96
2022-10-13T00:47:53.137Z,95.14
2022-10-13T00:50:26.111Z,94.85
2022-10-13T00:52:56.357Z,94.75
2022-10-13T00:55:29.171Z,95.37
2022-10-13T00:57:56.172Z,95.70
2022-10-13T01:00:32.226Z,95.74
2022-10-13T01:02:59.236Z,96.32
2022-10-13T01:05:25.908Z,95.76
2022-10-13T01:07:56.307Z,96.74
2022-10-13T01:11:08.569Z,96.15
2022-10-13T01:13:52.459Z,96.20
2022-10-13T01:16:56.870Z,96.52
2022-10-13T01:19:45.177Z,95.74
2022-10-13T01:22:47.918Z,96.31
2022-10-13T01:25:23.761Z,96.08
2022-10-13T01:28:18.293Z,95.59
2022-10-13T01:30:52.490Z,95.47
2022-10-13T01:33:44.260Z,94.94
2022-10-13T01:36:16.642Z,95.63
2022-10-13T01:38:50.582Z,96.02
2022-10-13T01:41:37.584Z,95.89
2022-10-13T01:44:25.277Z,95.54
2022-10-13T01:46:57.417Z,95.34
2022-10-13T01:49:27.574Z,95.82
2022-10-13T01:51:55.602Z,95.71
2022-10-13T01:54:22.213Z,95.42
2022-10-13T01:56:55.871Z,95.00
2022-10-13T01:59:24.494Z,94.90
2022-10-13T02:01:54.186Z,95.30
2022-10-13T02:05:06.137Z,94.82
2022-10-13T02:07:35.392Z,94.73
2022-10-13T02:10:41.026Z,93.73
2022-10-13T02:13:08.069Z,93.38
2022-10-13T02:15:43.476Z,93.21
2022-10-13T02:18:12.921Z,93.41
2022-10-13T02:20:41.867Z,93.70
2022-10-13T02:23:14.692Z,93.76
2022-10-13T02:25:41.778Z,93.82
2022-10-13T02:28:09.017Z,93.40
2022-10-13T02:30:42.608Z,93.88
2022-10-13T02:33:09.635Z,94.42
2022-10-13T02:35:37.158Z,94.47
2022-10-13T02:38:03.959Z,94.11
2022-10-13T02:40:30.625Z,94.15
2022-10-13T02:42:57.502Z,93.46
2022-10-13T02:45:24.186Z,93.22
2022-10-13T02:47:52.968Z,93.48
2022-10-13T02:50:19.588Z,93.44
2022-10-13T02:52:46.455Z,93.28
2022-10-13T02:55:13.022Z,94.02
2022-10-13T02:57:43.404Z,94.16
2022-10-13T03:00:10.620Z,94.05
2022-10-13T03:02:37.153Z,94.90
2022-10-13T03:05:04.014Z,95.17
2022-10-13T03:07:30.657Z,95.87
2022-10-13T03:09:57.268Z,95.66
2022-10-13T03:12:23.830Z,96.07
2022-10-13T03:14:50.404Z,96.17
2022-10-13T03:17:17.501Z,95.88
2022-10-13T03:19:44.073Z,96.16
2022-10-13T03:22:15.373Z,96.45
2022-10-13T03:24:42.362Z,96.16
2022-10-13T03:27:09.077Z,96.13
2022-10-13T03:29:35.859Z,96.55
2022-10-13T03:32:02.397Z,96.87
2022-10-13T03:34:29.097Z,96.06
2022-10-13T03:36:55.970Z,96.60
2022-10-13T03:39:22.576Z,96.28
2022-10-13T03:41:49.138Z,95.84
2022-10-13T03:44:15.845Z,96.10
2022-10-13T03:46:42.432Z,95.99
2022-10-13T03:49:11.180Z,96.17
2022-10-13T03:51:37.787Z,96.55
2022-10-13T03:54:04.411Z,95.45
2022-10-13T03:56:31.076Z,94.89
2022-10-13T03:58:59.344Z,95.17
2022-10-13T04:01:28.285Z,94.87
2022-10-13T04:03:55.864Z,94.48
2022-10-13T04:06:23.265Z,94.81
2022-10-13T04:08:49.958Z,94.77
2022-10-13T04:11:17.258Z,93.88
2022-10-13T04:13:44.838Z,93.81
2022-10-13T04:16:24.036Z,94.48
2022-10-13T04:18:53.287Z,94.73
2022-10-13T04:21:20.112Z,94.84
2022-10-13T04:23:46.749Z,94.10
2022-10-13T04:26:22.012Z,93.32
2022-10-13T04:28:48.991Z,93.54
2022-10-13T04:31:15.873Z,92.68
2022-10-13T04:33:42.598Z,93.11
2022-10-13T04:36:11.456Z,92.61
2022-10-13T04:38:38.335Z,92.41
2022-10-13T04:41:05.940Z,92.69
2022-10-13T04:43:33.565Z,93.66
2022-10-13T04:46:06.851Z,93.86
2022-10-13T04:48:33.451Z,94.08
2022-10-13T04:51:04.939Z,93.62
2022-10-13T04:53:31.930Z,93.64
2022-10-13T04:56:08.336Z,93.53
2022-10-13T04:58:36.373Z,93.54
2022-10-13T05:01:04.927Z,93.53
2022-10-13T05:03:31.737Z,92.96
2022-10-13T05:05:58.538Z,93.93
2022-10-13T05:08:25.824Z,93.03
2022-10-13T05:10:57.242Z,92.79
2022-10-13T05:13:24.928Z,92.58
2022-10-13T05:15:52.145Z,92.31
2022-10-13T05:18:21.497Z,92.75
2022-10-13T05:20:48.183Z,93.08
2022-10-13T05:23:15.734Z,92.74
2022-10-13T05:25:42.439Z,92.63
2022-10-13T05:28:12.875Z,91.62
2022-10-13T05:30:39.571Z,91.91
2022-10-13T05:33:06.139Z,92.59
2022-10-13T05:35:32.713Z,92.76
2022-10-13T05:37:59.277Z,91.54
2022-10-13T05:40:25.956Z,91.84
2022-10-13T05:42:59.788Z,91.21
2022-10-13T05:45:28.176Z,92.54
2022-10-13T05:47:54.794Z,92.82
2022-10-13T05:50:21.395Z,92.78
2022-10-13T05:52:48.025Z,92.28
2022-10-13T05:55:16.250Z,91.95
2022-10-13T05:57:46.026Z,91.60
2022-10-13T06:00:15.436Z,93.14
2022-10-13T06:02:51.957Z,92.71
2022-10-13T06:05:19.829Z,91.97
2022-10-13T06:07:49.749Z,92.08
2022-10-13T06:10:16.613Z,92.53
2022-10-13T06:12:43.268Z,92.52
2022-10-13T06:15:34.190Z,91.91
2022-10-13T06:18:01.457Z,92.31
2022-10-13T06:20:29.516Z,92.55
2022-10-13T06:22:56.959Z,93.24
2022-10-13T06:25:23.510Z,93.05
2022-10-13T06:27:50.271Z,92.57
2022-10-13T06:30:16.971Z,92.70
2022-10-13T06:32:43.618Z,93.01
2022-10-13T06:35:10.209Z,92.59
2022-10-13T06:37:36.805Z,92.46
2022-10-13T06:40:05.483Z,93.01
2022-10-13T06:42:34.816Z,92.47
2022-10-13T06:45:09.235Z,92.21
2022-10-13T06:47:35.893Z,91.96
2022-10-13T06:50:02.518Z,91.35
2022-10-13T06:52:29.157Z,91.09
2022-10-13T06:54:55.685Z,90.98
2022-10-13T06:57:22.512Z,90.80
2022-10-13T06:59:49.129Z,90.95
2022-10-13T07:02:15.729Z,90.22
2022-10-13T07:04:42.653Z,90.47
2022-10-13T07:07:09.236Z,90.25
2022-10-13T07:09:36.569Z,90.15
2022-10-13T07:12:03.271Z,90.14
2022-10-13T07:14:29.860Z,89.74
2022-10-13T07:16:56.527Z,89.85
2022-10-13T07:19:23.115Z,89.43
2022-10-13T07:21:49.799Z,89.55
2022-10-13T07:24:16.359Z,89.93
2022-10-13T07:26:42.954Z,89.56
2022-10-13T07:29:09.662Z,88.92
2022-10-13T07:31:36.393Z,89.31
2022-10-13T07:34:04.837Z,88.37
2022-10-13T07:36:33.000Z,87.24
2022-10-13T07:39:01.057Z,86.98
2022-10-13T07:41:27.670Z,86.20
2022-10-13T07:43:56.487Z,85.54
2022-10-13T07:46:23.358Z,84.63
2022-10-13T07:48:50.095Z,84.77
2022-10-13T07:51:16.950Z,84.60
2022-10-13T07:53:46.528Z,84.03
2022-10-13T07:56:15.055Z,83.65
2022-10-13T07:58:46.606Z,83.70
2022-10-13T08:01:14.781Z,83.38
2022-10-13T08:03:44.205Z,83.12
2022-10-13T08:06:16.867Z,81.87
2022-10-13T08:08:43.417Z,82.29
2022-10-13T08:11:16.352Z,82.06
2022-10-13T08:13:47.779Z,82.09
2022-10-13T08:16:16.334Z,81.95
2022-10-13T08:18:42.920Z,82.34
2022-10-13T08:21:53.402Z,81.92
2022-10-13T08:24:00.413Z,81.71
2022-10-13T08:26:28.661Z,81.71
2022-10-13T08:29:16.670Z,81.07
2022-10-13T08:31:42.486Z,81.41
2022-10-13T08:34:10.595Z,81.58
2022-10-13T08:36:38.188Z,81.11
2022-10-13T08:39:05.239Z,80.83
2022-10-13T08:41:36.294Z,81.25
2022-10-13T08:44:56.763Z,81.80
2022-10-13T08:47:06.813Z,81.58
2022-10-13T08:49:33.946Z,81.25
2022-10-13T08:52:04.810Z,80.65
2022-10-13T08:54:32.545Z,80.80
2022-10-13T08:59:31.046Z,79.95
2022-10-13T09:01:57.874Z,79.44
2022-10-13T09:04:30.031Z,79.28
2022-10-13T09:07:03.323Z,79.15
2022-10-13T09:09:29.953Z,79.25
2022-10-13T09:11:58.274Z,78.99
2022-10-13T09:14:28.126Z,78.33
2022-10-13T09:16:56.640Z,78.35
2022-10-13T09:19:36.306Z,78.39
2022-10-13T09:22:40.838Z,77.81
2022-10-13T09:25:07.403Z,78.11
2022-10-13T09:27:49.262Z,77.53
2022-10-13T09:30:25.909Z,77.23
2022-10-13T09:33:04.718Z,75.90
2022-10-13T09:35:34.357Z,75.99
2022-10-13T09:38:21.741Z,75.67
2022-10-13T09:41:08.621Z,75.50
2022-10-13T09:43:47.261Z,76.17
2022-10-13T09:46:58.684Z,76.95
2022-10-13T09:49:44.338Z,76.13
2022-10-13T09:52:13.913Z,76.68
2022-10-13T09:54:40.519Z,76.70
2022-10-13T09:57:33.242Z,75.93
2022-10-13T10:00:06.201Z,75.28
2022-10-13T10:02:51.223Z,75.17
2022-10-13T10:05:29.014Z,74.94
2022-10-13T10:08:04.280Z,75.50
2022-10-13T10:10:35.138Z,75.66
2022-10-13T10:13:04.120Z,76.07
2022-10-13T10:15:45.191Z,76.68
2022-10-13T10:18:16.187Z,76.64
2022-10-13T10:20:57.094Z,75.77
2022-10-13T10:23:39.814Z,74.63
2022-10-13T10:26:13.657Z,73.86
2022-10-13T10:28:45.721Z,73.64
2022-10-13T10:31:46.982Z,72.55
2022-10-13T10:34:28.875Z,71.85
2022-10-13T10:37:25.153Z,71.97
2022-10-13T10:40:12.874Z,71.60
2022-10-13T10:42:51.985Z,71.78
2022-10-13T10:45:23.474Z,71.05
2022-10-13T10:47:53.253Z,71.67
2022-10-13T10:50:20.434Z,71.33
2022-10-13T10:52:55.048Z,71.90
2022-10-13T10:55:33.940Z,72.06
2022-10-13T10:58:19.568Z,71.75
2022-10-13T11:00:54.253Z,72.83
2022-10-13T11:03:36.036Z,72.93
2022-10-13T11:06:26.234Z,73.26
2022-10-13T11:08:55.310Z,72.70
2022-10-13T11:11:37.556Z,73.43
2022-10-13T11:14:08.359Z,73.41
2022-10-13T11:16:36.207Z,73.89
2022-10-13T11:19:34.497Z,73.64
2022-10-13T11:22:01.034Z,73.27
2022-10-13T11:24:41.602Z,73.32
2022-10-13T11:27:16.870Z,73.54
2022-10-13T11:29:43.379Z,74.16
2022-10-13T11:32:25.628Z,74.01
2022-10-13T11:35:06.261Z,74.56
2022-10-13T11:38:06.911Z,74.93
2022-10-13T11:41:18.986Z,75.43
2022-10-13T11:44:03.431Z,75.91
2022-10-13T11:47:02.892Z,76.40
2022-10-13T11:49:47.888Z,77.62
2022-10-13T11:52:42.523Z,77.90
2022-10-13T11:55:34.567Z,77.68
2022-10-13T11:58:28.726Z,78.10
2022-10-13T12:01:19.896Z,79.06
2022-10-13T12:03:47.713Z,78.74
2022-10-13T12:06:44.887Z,78.31
2022-10-13T12:09:19.668Z,78.87
2022-10-13T12:11:46.919Z,79.17
2022-10-13T12:14:23.008Z,80.18
2022-10-13T12:17:00.411Z,81.57
2022-10-13T12:19:31.427Z,81.29
2022-10-13T12:22:00.581Z,81.97
2022-10-13T12:24:29.580Z,82.48
2022-10-13T12:26:56.710Z,82.35
2022-10-13T12:29:31.063Z,82.12
2022-10-13T12:32:03.262Z,82.13
2022-10-13T12:34:32.782Z,82.07
2022-10-13T12:37:01.728Z,81.96
2022-10-13T12:39:31.249Z,82.50
2022-10-13T12:41:58.595Z,82.22
2022-10-13T12:44:30.455Z,82.23
2022-10-13T12:46:59.282Z,82.05
2022-10-13T12:49:34.893Z,80.75
2022-10-13T12:52:22.804Z,81.30
2022-10-13T12:54:57.803Z,82.26
2022-10-13T12:57:36.163Z,82.58
2022-10-13T13:00:05.735Z,81.73
2022-10-13T13:02:35.836Z,82.36
2022-10-13T13:05:02.658Z,81.94
2022-10-13T13:07:35.708Z,81.09
2022-10-13T13:10:17.488Z,81.08
2022-10-13T13:12:46.909Z,81.50
2022-10-13T13:15:25.636Z,81.38
2022-10-13T13:17:59.316Z,80.96
2022-10-13T13:20:32.304Z,80.85
2022-10-13T13:23:05.356Z,81.17
2022-10-13T13:25:32.289Z,81.33
2022-10-13T13:28:04.116Z,81.55
2022-10-13T13:30:36.988Z,80.96
2022-10-13T13:33:08.572Z,80.83
2022-10-13T13:35:41.331Z,80.54
2022-10-13T13:38:11.930Z,81.11
2022-10-13T13:40:38.620Z,82.25
2022-10-13T13:43:05.351Z,81.80
2022-10-13T13:45:34.365Z,81.67
2022-10-13T13:48:01.919Z,81.59
2022-10-13T13:50:34.419Z,81.48
2022-10-13T13:53:01.348Z,81.27
2022-10-13T13:55:29.545Z,81.49
2022-10-13T13:57:57.025Z,83.03
2022-10-13T14:00:24.290Z,83.07
2022-10-13T14:03:06.506Z,83.93
2022-10-13T14:05:33.269Z,84.14
2022-10-13T14:08:00.093Z,84.53
2022-10-13T14:10:26.987Z,85.54
2022-10-13T14:12:53.629Z,85.78
2022-10-13T14:15:27.170Z,85.58
2022-10-13T14:17:55.544Z,86.29
2022-10-13T14:20:22.671Z,87.38
2022-10-13T14:22:49.727Z,87.91
2022-10-13T14:25:16.381Z,87.83
2022-10-13T14:27:45.687Z,87.93
2022-10-13T14:30:13.121Z,88.53
2022-10-13T14:32:39.797Z,88.52
2022-10-13T14:35:06.971Z,87.87
2022-10-13T14:37:34.284Z,87.94
2022-10-13T14:40:01.277Z,87.97
2022-10-13T14:42:27.971Z,88.28
2022-10-13T14:44:54.566Z,88.64
2022-10-13T14:47:21.498Z,89.03
2022-10-13T14:49:48.270Z,90.28
2022-10-13T14:52:15.104Z,91.35
2022-10-13T14:54:44.833Z,90.84
2022-10-13T14:57:30.105Z,91.86
2022-10-13T15:00:00.854Z,93.12
2022-10-13T15:02:28.809Z,94.16
2022-10-13T15:04:55.399Z,94.44
2022-10-13T15:07:22.275Z,95.16
2022-10-13T15:10:04.214Z,95.89
2022-10-13T15:12:31.848Z,96.34
2022-10-13T15:14:58.475Z,95.69
2022-10-13T15:17:25.085Z,95.35
2022-10-13T15:19:51.764Z,96.21
2022-10-13T15:22:18.697Z,96.21
2022-10-13T15:24:45.718Z,96.42
2022-10-13T15:27:12.439Z,96.42
2022-10-13T15:29:39.080Z,97.27
2022-10-13T15:32:11.772Z,96.03
2022-10-13T15:34:39.864Z,97.86
2022-10-13T15:37:06.860Z,97.43
2022-10-13T15:39:35.780Z,97.11
2022-10-13T15:42:03.464Z,96.94
2022-10-13T15:44:51.022Z,96.18
2022-10-13T15:47:49.436Z,95.73
2022-10-13T15:50:16.158Z,95.83
2022-10-13T15:52:43.151Z,95.43
2022-10-13T15:55:11.499Z,96.83
2022-10-13T15:57:38.983Z,97.33
2022-10-13T16:00:07.644Z,98.66
2022-10-13T16:02:40.262Z,97.86
2022-10-13T16:05:08.626Z,97.54
2022-10-13T16:07:35.533Z,97.05
2022-10-13T16:10:02.571Z,97.40
2022-10-13T16:12:29.622Z,97.16
2022-10-13T16:14:56.544Z,97.94
2022-10-13T16:17:23.211Z,98.25
2022-10-13T16:19:49.980Z,98.44
2022-10-13T16:22:16.536Z,98.64
2022-10-13T16:24:43.146Z,98.86
2022-10-13T16:27:09.902Z,99.49
2022-10-13T16:29:36.542Z,100.00
2022-10-13T16:32:03.184Z,100.00
2022-10-13T16:34:29.820Z,100.00
2022-10-13T16:36:56.336Z,100.00
2022-10-13T16:39:24.421Z,100.00
2022-10-13T16:41:54.098Z,100.00
2022-10-13T16:44:24.575Z,100.00
2022-10-13T16:46:53.816Z,100.00
2022-10-13T16:49:20.436Z,100.00
2022-10-13T16:51:47.093Z,100.00
2022-10-13T16:54:13.720Z,100.00
2022-10-13T16:56:40.322Z,100.00
2022-10-13T16:59:07.360Z,100.00
2022-10-13T17:01:36.481Z,100.00
2022-10-13T17:04:04.464Z,100.00
2022-10-13T17:06:31.212Z,100.00
2022-10-13T17:08:59.110Z,100.00
2022-10-13T17:11:28.570Z,100.00
2022-10-13T17:13:59.353Z,100.00
2022-10-13T17:16:30.171Z,100.00
2022-10-13T17:18:57.192Z,100.00
2022-10-13T17:21:34.874Z,100.00
2022-10-13T17:24:01.519Z,100.00
2022-10-13T17:26:28.405Z,100.00
2022-10-13T17:28:55.191Z,100.00
2022-10-13T17:31:23.568Z,100.00
2022-10-13T17:33:50.965Z,100.00
2022-10-13T17:36:19.481Z,100.00
2022-10-13T17:38:47.608Z,100.00
2022-10-13T17:41:14.753Z,100.00
2022-10-13T17:43:49.078Z,100.00
2022-10-13T17:46:38.374Z,100.00
2022-10-13T17:49:11.331Z,100.00
2022-10-13T17:51:39.203Z,100.00
2022-10-13T17:54:14.492Z,100.00
2022-10-13T17:56:42.822Z,100.00
2022-10-13T17:59:09.915Z,100.00
2022-10-13T18:01:41.937Z,100.00
2022-10-13T18:04:14.566Z,100.00
2022-10-13T18:06:44.143Z,100.00
2022-10-13T18:09:23.364Z,100.00
2022-10-13T18:11:52.160Z,100.00
2022-10-13T18:14:20.473Z,100.00
2022-10-13T18:16:49.550Z,100.00
2022-10-13T18:19:16.253Z,100.00
2022-10-13T18:21:43.051Z,100.00
2022-10-13T18:24:10.864Z,100.00
2022-10-13T18:26:37.553Z,100.00
2022-10-13T18:29:07.838Z,100.00
2022-10-13T18:31:36.652Z,100.00
2022-10-13T18:34:07.122Z,100.00
2022-10-13T18:36:39.178Z,100.00
2022-10-13T18:39:28.866Z,100.00
2022-10-13T18:41:57.084Z,100.00
2022-10-13T18:44:33.801Z,100.00
2022-10-13T18:47:00.522Z,100.00
2022-10-13T18:49:33.345Z,100.00
2022-10-13T18:52:00.969Z,100.00
2022-10-13T18:54:28.189Z,100.00
2022-10-13T18:56:54.948Z,100.00
2022-10-13T18:59:21.823Z,100.00
2022-10-13T19:01:48.686Z,100.00
2022-10-13T19:04:16.782Z,99.75
2022-10-13T19:06:44.500Z,100.00
2022-10-13T19:09:13.279Z,99.63
2022-10-13T19:11:39.972Z,99.11
2022-10-13T19:14:08.833Z,99.64
2022-10-13T19:16:37.806Z,99.94
2022-10-13T19:19:05.189Z,99.41
2022-10-13T19:21:32.713Z,99.23
2022-10-13T19:24:00.016Z,100.00
2022-10-13T19:26:30.616Z,100.00
2022-10-13T19:29:08.905Z,100.00
2022-10-13T19:31:37.266Z,100.00
2022-10-13T19:34:06.861Z,100.00
2022-10-13T19:36:37.485Z,100.00
2022-10-13T19:39:07.110Z,100.00
2022-10-13T19:41:34.583Z,100.00
2022-10-13T19:44:02.223Z,100.00
2022-10-13T19:46:38.436Z,100.00
2022-10-13T19:49:05.575Z,100.00
2022-10-13T19:51:33.449Z,100.00
2022-10-13T19:54:00.458Z,100.00
2022-10-13T19:56:31.517Z,100.00
2022-10-13T19:58:58.434Z,100.00
2022-10-13T20:01:25.193Z,100.00
2022-10-13T20:03:52.150Z,100.00
2022-10-13T20:06:19.381Z,100.00
2022-10-13T20:08:46.377Z,100.00
2022-10-13T20:11:23.051Z,100.00
2022-10-13T20:13:50.499Z,100.00
2022-10-13T20:16:20.075Z,100.00
2022-10-13T20:18:51.427Z,99.26
2022-10-13T20:21:18.202Z,99.56
2022-10-13T20:23:44.791Z,99.56
2022-10-13T20:26:12.722Z,99.38
2022-10-13T20:28:48.475Z,98.10
2022-10-13T20:31:16.391Z,97.37
2022-10-13T20:33:43.742Z,97.59
2022-10-13T20:36:15.219Z,97.40
2022-10-13T20:38:42.024Z,96.96
2022-10-13T20:41:22.337Z,96.23
2022-10-13T20:44:34.159Z,96.27
2022-10-13T20:47:07.695Z,96.15
2022-10-13T20:49:34.578Z,96.13
2022-10-13T20:52:11.429Z,94.30
2022-10-13T20:54:38.461Z,94.78
2022-10-13T20:57:08.155Z,94.35
2022-10-13T20:59:35.568Z,94.27
2022-10-13T21:02:14.591Z,93.85
2022-10-13T21:04:41.385Z,93.52
2022-10-13T21:07:08.344Z,93.40
2022-10-13T21:09:36.207Z,93.36
2022-10-13T21:12:02.938Z,94.00
2022-10-13T21:14:29.612Z,91.88
2022-10-13T21:16:58.373Z,92.01
2022-10-13T21:19:26.055Z,93.15
2022-10-13T21:21:52.686Z,93.52
2022-10-13T21:24:19.285Z,93.60
2022-10-13T21:26:48.260Z,94.13
2022-10-13T21:29:15.076Z,93.66
2022-10-13T21:31:42.041Z,93.93
2022-10-13T21:34:10.375Z,93.64
2022-10-13T21:36:36.998Z,92.47
2022-10-13T21:39:05.523Z,91.92
2022-10-13T21:41:32.688Z,91.74
2022-10-13T21:43:59.530Z,93.15
2022-10-13T21:46:33.488Z,92.52
2022-10-13T21:49:14.924Z,93.16
2022-10-13T21:51:41.881Z,93.94
2022-10-13T21:54:11.364Z,93.63
2022-10-13T21:56:41.040Z,93.98
2022-10-13T21:59:08.296Z,94.19
2022-10-13T22:01:37.252Z,94.30
2022-10-13T22:04:09.183Z,93.42
2022-10-13T22:06:35.872Z,93.81
2022-10-13T22:09:04.165Z,94.12
2022-10-13T22:11:33.283Z,93.77
2022-10-13T22:14:05.806Z,93.58
2022-10-13T22:16:38.894Z,93.76
2022-10-13T22:19:06.294Z,93.67
2022-10-13T22:21:39.936Z,93.50
2022-10-13T22:24:07.983Z,93.94
2022-10-13T22:26:36.636Z,93.74
2022-10-13T22:29:05.151Z,93.79
2022-10-13T22:31:33.205Z,93.79
2022-10-13T22:34:05.519Z,94.49
2022-10-13T22:36:35.151Z,94.70
2022-10-13T22:39:07.791Z,94.35
2022-10-13T22:41:35.127Z,94.54
2022-10-13T22:44:02.357Z,94.91
2022-10-13T22:46:34.144Z,95.29
2022-10-13T22:49:01.148Z,95.06
2022-10-13T22:51:31.788Z,95.24
2022-10-13T22:53:59.222Z,94.11
2022-10-13T22:56:31.079Z,93.33
2022-10-13T22:59:03.791Z,94.48
2022-10-13T23:01:30.705Z,95.80
2022-10-13T23:03:58.853Z,96.98
2022-10-13T23:06:28.931Z,97.31
2022-10-13T23:08:56.030Z,97.26
2022-10-13T23:11:22.911Z,97.86
2022-10-13T23:13:49.627Z,97.14
2022-10-13T23:16:22.079Z,97.04
2022-10-13T23:18:49.333Z,97.64
2022-10-13T23:21:27.383Z,96.80
2022-10-13T23:24:02.993Z,97.66
2022-10-13T23:26:30.311Z,98.28
2022-10-13T23:29:04.323Z,98.90
2022-10-13T23:31:31.142Z,99.08
2022-10-13T23:33:58.602Z,98.85
2022-10-13T23:36:27.295Z,98.61
2022-10-13T23:38:57.959Z,98.43
2022-10-13T23:41:25.148Z,98.85
2022-10-13T23:43:51.741Z,99.72
2022-10-13T23:46:18.367Z,98.90
2022-10-13T23:48:45.348Z,98.29
2022-10-13T23:51:17.517Z,98.32
2022-10-13T23:53:44.459Z,98.52
2022-10-13T23:56:12.107Z,98.24
2022-10-13T23:58:40.353Z,98.66
